Black Creek, Canada
Current Conditions -  °F | °C
As of 10:00 PM on Tuesday 25 Nov 2014 (Local Time) from CYWL Reporting Station
Light Snow Light Snow  
Wind Chill: 23°   Ceiling: 5000
Heat Index: 28°   Visibility: 12mi
Dew Point: 28°   Wind: 5mph
Humidity: 100%   Direction: 120°ESE
Pressure: 30.13"   Gusts: NA
Location:  52.3°N, 121.12°W
Report Text: CYWL 260600Z 12004KT 12SM -SN OVC050 M02/M02 A3013 RMK SC8 SLP247
Loading
Personal Weather Stations






























Interactive Weather Map New forecast layout! Learn more

10-Day Weather Forecast

Advertisements
Track Severe Weather on mobile